Stokesdale, Pennsylvania
Current Conditions -  °F | °C
As of 11:15 PM on Wednesday 24 Dec 2014 (Local Time) from KN38 Reporting Station
Haze Haze  
Wind Chill: 50°   Ceiling: 300
Heat Index: 50°   Visibility: 3mi
Dew Point: 50°   Wind: 21mph
Humidity: 100%   Direction: 190°S
Pressure: 29.38"   Gusts: 29mph
Location:  41.7308°N, 77.349°W
Report Text: KN38 250415Z AUTO 19018G25KT 3SM BR OVC003 10/10 A2938 RMK AO2
Loading
Personal Weather Stations






























Interactive Weather Map New forecast layout! Learn more

10-Day Weather Forecast

Advertisements
Track Severe Weather on mobile